Terminal Aerodrome Forecast
Issued by NWS

Home | Current Version | Previous Version | Text Only | Print | Product List | Glossary On
Versions: 1 2 3 4 5 6 7 8 9 10 11 12
000
FTUS43 KPAH 291120
TAFOWB
TAF
KOWB 291120Z 2912/3012 17006KT P6SM SCT060
     FM291600 21011G18KT P6SM BKN060
     FM300000 18008KT P6SM SCT250
     FM300900 18006KT P6SM BKN025=

USA.gov is the U.S. government's official web portal to all federal, state and local government web resources and services.